Time;durP1;ratioP1;P1;durP2;ratioP2;P2;SDS_P1;SDS_P2;PMS_P1;PMS_P2;Temp;Humidity;BMP_temperature;BMP_pressure;BME280_temperature;BME280_humidity;BME280_pressure;Samples;Min_cycle;Max_cycle;Signal;HPM_P1;HPM_P2
2023/12/28 00:00:01;;;;;;;13.2;7.3;;;;;;;2.36;75.70215;940.7266;;;;
2023/12/28 00:02:40;;;;;;;11.5;7;;;;;;;2.41;75.63086;940.6842;;;;
2023/12/28 00:05:20;;;;;;;11.9;7;;;;;;;2.56;75.19922;940.6214;;;;
2023/12/28 00:07:47;;;;;;;11.3;6.4;;;;;;;2.52;75.06934;940.66;;;;
2023/12/28 00:10:20;;;;;;;12.8;7.2;;;;;;;2.34;75.3623;940.5742;;;;
2023/12/28 00:12:51;;;;;;;12.6;7.4;;;;;;;2.28;75.38477;940.5347;;;;
2023/12/28 00:15:30;;;;;;;14.1;6.9;;;;;;;2.21;75.38281;940.6265;;;;
2023/12/28 00:17:59;;;;;;;9.7;6;;;;;;;2.18;75.43457;940.6624;;;;
2023/12/28 00:20:33;;;;;;;79.4;34.5;;;;;;;2.25;75.51465;940.6308;;;;
2023/12/28 00:23:02;;;;;;;66.5;28.8;;;;;;;2.32;75.51465;940.6602;;;;
2023/12/28 00:25:32;;;;;;;17.8;10.6;;;;;;;2.29;75.56543;940.6788;;;;
2023/12/28 00:28:06;;;;;;;11.9;6.3;;;;;;;2.34;75.58496;940.7122;;;;
2023/12/28 00:30:32;;;;;;;11;6;;;;;;;2.38;75.55957;940.6702;;;;
2023/12/28 00:32:59;;;;;;;11.1;6.5;;;;;;;2.37;75.72559;940.705;;;;
2023/12/28 00:35:24;;;;;;;11.2;6.5;;;;;;;2.31;76.0957;940.7225;;;;
2023/12/28 00:37:49;;;;;;;10.2;6.5;;;;;;;2.21;76.5498;940.75;;;;
2023/12/28 00:40:22;;;;;;;10.3;6.7;;;;;;;2.18;76.69922;940.6513;;;;
2023/12/28 00:42:52;;;;;;;10.6;6.4;;;;;;;2.15;76.4707;940.7561;;;;
2023/12/28 00:45:24;;;;;;;11.8;6.4;;;;;;;2.11;77.13477;940.8133;;;;
2023/12/28 00:47:49;;;;;;;11.1;6.4;;;;;;;2.05;76.83301;940.7715;;;;
2023/12/28 00:50:31;;;;;;;10.5;6.2;;;;;;;2.11;76.45117;940.873;;;;
2023/12/28 00:52:54;;;;;;;12.5;7;;;;;;;2.03;76.77246;940.8434;;;;
2023/12/28 00:55:22;;;;;;;9.6;6;;;;;;;2.13;76.5459;940.827;;;;
2023/12/28 00:57:48;;;;;;;11.6;6.2;;;;;;;2.15;76.44824;940.8174;;;;
2023/12/28 01:00:25;;;;;;;10;5.5;;;;;;;2.1;76.88672;940.8914;;;;
2023/12/28 01:02:53;;;;;;;8.9;5.1;;;;;;;1.96;77.03906;940.9547;;;;
2023/12/28 01:05:28;;;;;;;8.2;5.1;;;;;;;1.97;76.84082;940.9841;;;;
2023/12/28 01:07:57;;;;;;;9.2;4.9;;;;;;;1.99;76.45215;941.0167;;;;
2023/12/28 01:10:22;;;;;;;9;5;;;;;;;2.1;76.2373;940.9895;;;;
2023/12/28 01:12:53;;;;;;;8.6;5.1;;;;;;;2.2;75.69531;940.9941;;;;
2023/12/28 01:15:20;;;;;;;9.7;5.5;;;;;;;2.06;76.13965;940.9578;;;;
2023/12/28 01:17:44;;;;;;;10.7;5.3;;;;;;;2.15;75.89941;941.0351;;;;
2023/12/28 01:20:21;;;;;;;11.7;6;;;;;;;2.11;75.84668;941.0333;;;;
2023/12/28 01:22:46;;;;;;;10.5;5.3;;;;;;;2.14;75.74121;940.9885;;;;
2023/12/28 01:25:19;;;;;;;9.4;4.8;;;;;;;2.19;75.77148;940.9788;;;;
2023/12/28 01:27:44;;;;;;;7.1;4.3;;;;;;;2.18;75.70313;940.8692;;;;
2023/12/28 01:30:14;;;;;;;7.9;4;;;;;;;2.1;75.92383;940.9299;;;;
2023/12/28 01:32:43;;;;;;;7.4;4;;;;;;;2.11;75.9043;941.0303;;;;
2023/12/28 01:35:16;;;;;;;7.4;3.9;;;;;;;1.97;76.46094;941.0889;;;;
2023/12/28 01:37:48;;;;;;;7.1;3.8;;;;;;;2.01;76.71289;941.1292;;;;
2023/12/28 01:40:13;;;;;;;8.7;3.5;;;;;;;2.05;76.74414;941.1577;;;;
2023/12/28 01:42:45;;;;;;;6.2;3.4;;;;;;;1.99;77.12598;941.1573;;;;
2023/12/28 01:45:21;;;;;;;7;3.6;;;;;;;2.02;76.96094;941.1736;;;;
2023/12/28 01:47:48;;;;;;;6.8;3.5;;;;;;;1.89;77.27246;941.2175;;;;
2023/12/28 01:50:14;;;;;;;5.5;3.3;;;;;;;1.96;77.17383;941.2059;;;;
2023/12/28 01:52:39;;;;;;;5.5;3.1;;;;;;;1.97;77.22168;941.2307;;;;
2023/12/28 01:55:11;;;;;;;5.7;3.4;;;;;;;1.9;77.34277;941.2258;;;;
2023/12/28 01:57:36;;;;;;;5.3;3.1;;;;;;;1.91;77.2002;941.2211;;;;
2023/12/28 02:00:15;;;;;;;4.5;2.6;;;;;;;1.99;76.78809;941.2388;;;;
2023/12/28 02:02:52;;;;;;;5.2;3;;;;;;;2.01;76.90332;941.2101;;;;
2023/12/28 02:05:26;;;;;;;4.4;2.5;;;;;;;1.88;77.25;941.2566;;;;
2023/12/28 02:07:52;;;;;;;6.1;3.2;;;;;;;1.99;76.67676;941.3535;;;;
2023/12/28 02:10:20;;;;;;;6.2;3.7;;;;;;;1.94;76.63477;941.3356;;;;
2023/12/28 02:12:49;;;;;;;6.9;4;;;;;;;1.99;76.91113;941.2837;;;;
2023/12/28 02:15:13;;;;;;;7;3.7;;;;;;;1.98;77.11133;941.438;;;;
2023/12/28 02:17:41;;;;;;;8.3;3.6;;;;;;;2.07;76.65723;941.4595;;;;
2023/12/28 02:20:07;;;;;;;7.4;3.8;;;;;;;1.92;77.03223;941.4387;;;;
2023/12/28 02:22:40;;;;;;;7.6;3.8;;;;;;;1.8;77.34668;941.4225;;;;
2023/12/28 02:25:03;;;;;;;8.2;3.7;;;;;;;1.75;77.31445;941.4564;;;;
2023/12/28 02:27:28;;;;;;;6.4;3.4;;;;;;;1.77;76.82617;941.4322;;;;
2023/12/28 02:29:58;;;;;;;7.4;3.2;;;;;;;1.76;76.84863;941.3911;;;;
2023/12/28 02:32:23;;;;;;;5.4;3.3;;;;;;;1.7;76.9707;941.3248;;;;
2023/12/28 02:34:52;;;;;;;5.7;3;;;;;;;1.62;77.1123;941.3298;;;;
2023/12/28 02:37:17;;;;;;;4.7;2.7;;;;;;;1.75;77.03516;941.3323;;;;
2023/12/28 02:39:42;;;;;;;4.9;2.7;;;;;;;1.74;77;941.2809;;;;
2023/12/28 02:42:07;;;;;;;5.9;2.9;;;;;;;1.75;77.10254;941.3359;;;;
2023/12/28 02:44:32;;;;;;;5;3;;;;;;;1.94;76.23047;941.3281;;;;
2023/12/28 02:47:00;;;;;;;4.8;3;;;;;;;1.94;76.37695;941.3567;;;;
2023/12/28 02:49:25;;;;;;;4.6;2.5;;;;;;;1.92;76.40625;941.3697;;;;
2023/12/28 02:51:54;;;;;;;4.7;2.5;;;;;;;1.95;76.15527;941.3596;;;;
2023/12/28 02:54:20;;;;;;;2.7;2;;;;;;;1.97;75.97949;941.311;;;;
2023/12/28 02:56:45;;;;;;;2.8;1.9;;;;;;;1.8;76.66309;941.3865;;;;
2023/12/28 02:59:11;;;;;;;3.6;2.3;;;;;;;1.73;77.17676;941.3464;;;;
2023/12/28 03:01:37;;;;;;;4.1;2.4;;;;;;;1.67;77.34473;941.331;;;;
2023/12/28 03:04:06;;;;;;;4.2;2.8;;;;;;;1.87;77.00195;941.2001;;;;
2023/12/28 03:06:38;;;;;;;14.1;6;;;;;;;1.84;76.44727;941.2411;;;;
2023/12/28 03:09:10;;;;;;;25.5;11.3;;;;;;;1.75;76.75586;941.1157;;;;
2023/12/28 03:11:35;;;;;;;38.5;15.4;;;;;;;1.74;76.91016;941.1105;;;;
2023/12/28 03:14:04;;;;;;;20.9;9.4;;;;;;;1.84;76.60547;941.1425;;;;
2023/12/28 03:16:29;;;;;;;11.2;4.6;;;;;;;1.86;76.60742;941.2123;;;;
2023/12/28 03:18:56;;;;;;;11.1;5.2;;;;;;;2.01;75.98535;941.291;;;;
2023/12/28 03:21:22;;;;;;;12.8;5.5;;;;;;;1.96;75.85449;941.2902;;;;
2023/12/28 03:23:48;;;;;;;9.9;4.5;;;;;;;1.98;75.7334;941.2068;;;;
2023/12/28 03:26:13;;;;;;;6.7;3.3;;;;;;;1.97;75.67676;941.1688;;;;
2023/12/28 03:28:38;;;;;;;5.6;2.8;;;;;;;1.86;76.1709;941.1212;;;;
2023/12/28 03:31:03;;;;;;;4.1;2.3;;;;;;;1.78;76.09082;941.0938;;;;
2023/12/28 03:33:30;;;;;;;3.7;2.3;;;;;;;1.77;76.12305;941.1756;;;;
2023/12/28 03:35:55;;;;;;;4.7;2.3;;;;;;;1.59;76.68262;941.123;;;;
2023/12/28 03:38:22;;;;;;;4.4;2.2;;;;;;;1.56;77.05664;941.1261;;;;
2023/12/28 03:40:50;;;;;;;3.6;2.2;;;;;;;1.55;76.99902;941.0812;;;;
2023/12/28 03:43:13;;;;;;;4;2.3;;;;;;;1.62;77.16895;941.154;;;;
2023/12/28 03:45:40;;;;;;;3.1;2.2;;;;;;;1.65;76.93848;941.1448;;;;
2023/12/28 03:48:07;;;;;;;3.3;1.9;;;;;;;1.7;76.60059;941.1526;;;;
2023/12/28 03:50:36;;;;;;;3.5;1.9;;;;;;;1.78;76.09082;941.1701;;;;
2023/12/28 03:53:06;;;;;;;3;1.9;;;;;;;1.79;76.0127;941.1961;;;;
2023/12/28 03:55:31;;;;;;;3.3;1.9;;;;;;;1.76;76.21094;941.2169;;;;
2023/12/28 03:57:59;;;;;;;3.3;1.9;;;;;;;1.7;76.22168;941.215;;;;
2023/12/28 04:02:37;;;;;;;4.6;2;;;;;;;1.59;76.79297;941.2389;;;;
2023/12/28 04:05:07;;;;;;;3.2;2.1;;;;;;;1.42;77.17676;941.2162;;;;
2023/12/28 04:07:32;;;;;;;2.5;1.9;;;;;;;1.54;76.59473;941.1348;;;;
2023/12/28 04:09:58;;;;;;;2.6;1.8;;;;;;;1.52;76.70215;941.173;;;;
2023/12/28 04:12:23;;;;;;;2.5;1.6;;;;;;;1.57;76.93555;941.1534;;;;
2023/12/28 04:14:49;;;;;;;3.6;1.8;;;;;;;1.66;76.7168;941.1845;;;;
2023/12/28 04:17:19;;;;;;;3;1.7;;;;;;;1.6;77.00684;941.2018;;;;
2023/12/28 04:19:43;;;;;;;4.9;1.9;;;;;;;1.62;76.96777;941.2141;;;;
2023/12/28 04:22:08;;;;;;;2.8;1.7;;;;;;;1.69;76.68945;941.2773;;;;
2023/12/28 04:24:38;;;;;;;3.3;2.4;;;;;;;1.69;76.57813;941.288;;;;
2023/12/28 04:27:03;;;;;;;3.7;2.4;;;;;;;1.66;76.78418;941.2693;;;;
2023/12/28 04:29:31;;;;;;;2.9;2;;;;;;;1.55;76.93164;941.301;;;;
2023/12/28 04:31:56;;;;;;;3.8;2.1;;;;;;;1.42;77.04102;941.3635;;;;
2023/12/28 04:34:23;;;;;;;3.6;1.8;;;;;;;1.3;77.71094;941.3689;;;;
2023/12/28 04:36:49;;;;;;;3.3;2.2;;;;;;;1.42;77.76758;941.3085;;;;
2023/12/28 04:39:17;;;;;;;3.5;2.2;;;;;;;1.4;77.70996;941.32;;;;
2023/12/28 04:41:41;;;;;;;4.2;2.5;;;;;;;1.47;77.56738;941.3074;;;;
2023/12/28 04:44:12;;;;;;;7.9;4.1;;;;;;;1.57;77.21484;941.3364;;;;
2023/12/28 04:46:37;;;;;;;7.2;3.5;;;;;;;1.6;77.27734;941.359;;;;
2023/12/28 04:49:02;;;;;;;6.8;3.8;;;;;;;1.46;77.75586;941.3948;;;;
2023/12/28 04:51:34;;;;;;;6;2.9;;;;;;;1.58;77.22754;941.3248;;;;
2023/12/28 04:54:02;;;;;;;4.1;2.2;;;;;;;1.55;77.41309;941.4695;;;;
2023/12/28 04:56:27;;;;;;;6.4;2.4;;;;;;;1.59;77.1748;941.4762;;;;
2023/12/28 04:58:57;;;;;;;2.7;1.8;;;;;;;1.57;77.2373;941.5183;;;;
2023/12/28 05:01:28;;;;;;;2;1.4;;;;;;;1.58;76.91406;941.5611;;;;
2023/12/28 05:03:52;;;;;;;1.8;1.5;;;;;;;1.56;77.08984;941.5491;;;;
2023/12/28 05:06:17;;;;;;;7.1;5.2;;;;;;;1.64;76.36719;941.6337;;;;
2023/12/28 05:08:46;;;;;;;7;5.5;;;;;;;1.64;76.43359;941.576;;;;
2023/12/28 05:11:11;;;;;;;20.8;14.2;;;;;;;1.69;76.08594;941.4638;;;;
2023/12/28 05:13:37;;;;;;;22;14.1;;;;;;;1.62;76.21777;941.5674;;;;
2023/12/28 05:16:03;;;;;;;8.8;5.8;;;;;;;1.64;76.24414;941.6563;;;;
2023/12/28 05:18:27;;;;;;;4.2;2.3;;;;;;;1.61;76.09473;941.728;;;;
2023/12/28 05:20:56;;;;;;;7.3;3.6;;;;;;;1.54;76.29297;941.7202;;;;
2023/12/28 05:23:21;;;;;;;8.9;4.2;;;;;;;1.45;76.66797;941.6624;;;;
2023/12/28 05:25:49;;;;;;;12.3;6.1;;;;;;;1.59;76.41406;941.6448;;;;
2023/12/28 05:28:16;;;;;;;17.2;6.6;;;;;;;1.61;76.29492;941.713;;;;
2023/12/28 05:30:46;;;;;;;16;7.3;;;;;;;1.59;76.33594;941.6442;;;;
2023/12/28 05:33:17;;;;;;;11.4;5.5;;;;;;;1.54;76.41602;941.6433;;;;
2023/12/28 05:35:44;;;;;;;7.2;3.6;;;;;;;1.38;76.75586;941.6334;;;;
2023/12/28 05:38:09;;;;;;;6.1;3.2;;;;;;;1.23;77.36426;941.7108;;;;
2023/12/28 05:40:40;;;;;;;4.9;2.5;;;;;;;1.22;77.6416;941.7159;;;;
2023/12/28 05:43:10;;;;;;;4.6;2.6;;;;;;;1.25;77.72559;941.7352;;;;
2023/12/28 05:45:42;;;;;;;5.2;2.4;;;;;;;1.24;78.05859;941.6516;;;;
2023/12/28 05:48:10;;;;;;;4.8;2.5;;;;;;;1.15;78.40137;941.7946;;;;
2023/12/28 05:50:35;;;;;;;3.9;2.6;;;;;;;1.16;78.23535;941.7112;;;;
2023/12/28 05:53:11;;;;;;;5.3;2.7;;;;;;;1.2;78.25293;941.7499;;;;
2023/12/28 05:55:32;;;;;;;6.1;3.5;;;;;;;1.17;78.56055;941.7469;;;;
2023/12/28 05:58:03;;;;;;;10;5.1;;;;;;;1.37;78.02734;941.7303;;;;
2023/12/28 06:00:32;;;;;;;9.4;4.9;;;;;;;1.44;77.58301;941.6229;;;;
2023/12/28 06:02:57;;;;;;;7.9;4.6;;;;;;;1.45;77.33887;941.6984;;;;
2023/12/28 06:05:30;;;;;;;10;5.7;;;;;;;1.39;77.31543;941.5699;;;;
2023/12/28 06:07:55;;;;;;;7.4;4.3;;;;;;;1.32;77.27051;941.6935;;;;
2023/12/28 06:10:27;;;;;;;6.9;3.6;;;;;;;1.12;77.61426;941.5728;;;;
2023/12/28 06:12:55;;;;;;;6.8;3.4;;;;;;;1.15;77.65234;941.5193;;;;
2023/12/28 06:15:20;;;;;;;4.9;3.2;;;;;;;1.32;77.5498;941.6277;;;;
2023/12/28 06:17:45;;;;;;;4.2;3.2;;;;;;;1.3;77.79297;941.6408;;;;
2023/12/28 06:20:17;;;;;;;6.5;3.7;;;;;;;1.25;78.14063;941.6666;;;;
2023/12/28 06:22:48;;;;;;;5.8;3.5;;;;;;;1.23;78.12598;941.6819;;;;
2023/12/28 06:25:11;;;;;;;4.9;3.3;;;;;;;1.13;78.35156;941.6671;;;;
2023/12/28 06:27:36;;;;;;;4.1;2.9;;;;;;;1.11;78.24707;941.7046;;;;
2023/12/28 06:30:02;;;;;;;6.5;2.8;;;;;;;1.19;78.28516;941.6772;;;;
2023/12/28 06:32:28;;;;;;;5.1;3.3;;;;;;;1.19;78.36328;941.6334;;;;
2023/12/28 06:35:00;;;;;;;5.4;3.2;;;;;;;1.15;78.25781;941.5798;;;;
2023/12/28 06:37:28;;;;;;;10.5;6.3;;;;;;;1.03;78.39063;941.5117;;;;
2023/12/28 06:39:53;;;;;;;11.5;7.2;;;;;;;1.11;78.18066;941.4098;;;;
2023/12/28 06:42:19;;;;;;;11.4;7.1;;;;;;;1.06;78.48535;941.452;;;;
2023/12/28 06:44:44;;;;;;;7.5;5.4;;;;;;;1.15;77.83301;941.4042;;;;
2023/12/28 06:47:09;;;;;;;4.6;3.4;;;;;;;1.17;76.9873;941.4883;;;;
2023/12/28 06:49:35;;;;;;;4.7;3.1;;;;;;;1.28;76.68164;941.5156;;;;
2023/12/28 06:52:05;;;;;;;5.1;3;;;;;;;1.37;76.6416;941.5052;;;;
2023/12/28 06:54:36;;;;;;;5.8;3.3;;;;;;;1.49;76.12793;941.4361;;;;
2023/12/28 06:57:06;;;;;;;8.5;4.4;;;;;;;1.47;76.28027;941.3564;;;;
2023/12/28 06:59:31;;;;;;;9.8;4.5;;;;;;;1.4;76.5127;941.5394;;;;
2023/12/28 07:02:04;;;;;;;6.7;4.5;;;;;;;1.22;77.02734;941.4894;;;;
2023/12/28 07:04:32;;;;;;;6.1;4.6;;;;;;;1.25;77.14551;941.5401;;;;
2023/12/28 07:06:57;;;;;;;10.5;5.4;;;;;;;1.27;77.11523;941.5458;;;;
2023/12/28 07:09:27;;;;;;;10.7;5.6;;;;;;;1.35;77.21973;941.5083;;;;
2023/12/28 07:11:57;;;;;;;10;6.7;;;;;;;1.27;77.51758;941.5662;;;;
2023/12/28 07:14:25;;;;;;;15.5;7.4;;;;;;;1.3;77.46875;941.5334;;;;
2023/12/28 07:16:50;;;;;;;15.2;7.7;;;;;;;1.18;77.80469;941.5413;;;;
2023/12/28 07:19:16;;;;;;;15.5;8.7;;;;;;;1.07;78.16309;941.491;;;;
2023/12/28 07:21:41;;;;;;;14.1;6.8;;;;;;;1.18;77.98145;941.4808;;;;
2023/12/28 07:24:11;;;;;;;7.4;4.5;;;;;;;1.26;77.5166;941.5588;;;;
2023/12/28 07:26:41;;;;;;;6.7;3.6;;;;;;;1.39;77.09277;941.4482;;;;
2023/12/28 07:29:06;;;;;;;5.6;3.6;;;;;;;1.35;77.40039;941.5406;;;;
2023/12/28 07:31:34;;;;;;;3.9;2.9;;;;;;;1.35;77.03027;941.4939;;;;
2023/12/28 07:34:00;;;;;;;3.1;2.5;;;;;;;1.41;76.58301;941.5276;;;;
2023/12/28 07:36:27;;;;;;;4.1;2.3;;;;;;;1.44;76.14063;941.4771;;;;
2023/12/28 07:38:52;;;;;;;5.1;3;;;;;;;1.6;75.10742;941.4233;;;;
2023/12/28 07:41:20;;;;;;;4.6;2.9;;;;;;;1.7;74.70996;941.3708;;;;
2023/12/28 07:43:47;;;;;;;8.1;4.4;;;;;;;1.74;74.61914;941.373;;;;
2023/12/28 07:46:11;;;;;;;10.2;5.5;;;;;;;1.6;75.24219;941.3209;;;;
2023/12/28 07:48:38;;;;;;;9.8;5.8;;;;;;;1.61;75.59961;941.3391;;;;
2023/12/28 07:51:03;;;;;;;5.6;3.9;;;;;;;1.67;75.41113;941.2537;;;;
2023/12/28 07:53:31;;;;;;;6.3;4;;;;;;;1.68;75.62402;941.323;;;;
2023/12/28 07:55:58;;;;;;;7.2;4.3;;;;;;;1.72;75.7998;941.2935;;;;
2023/12/28 07:58:21;;;;;;;6.2;3.9;;;;;;;1.82;75.33691;941.3669;;;;
2023/12/28 08:00:49;;;;;;;7.8;5.5;;;;;;;1.78;75.54102;941.2955;;;;
2023/12/28 08:03:15;;;;;;;14.4;8.9;;;;;;;1.75;75.69434;941.4749;;;;
2023/12/28 08:05:42;;;;;;;26.9;14.6;;;;;;;1.82;75.60547;941.4609;;;;
2023/12/28 08:08:07;;;;;;;16.8;9.9;;;;;;;1.78;75.2627;941.4433;;;;
2023/12/28 08:10:33;;;;;;;17.3;8.9;;;;;;;1.67;75.95898;941.4389;;;;
2023/12/28 08:12:58;;;;;;;16.2;9;;;;;;;1.78;76.0791;941.4825;;;;
2023/12/28 08:15:23;;;;;;;15;9.4;;;;;;;2.33;75.67285;941.4353;;;;
2023/12/28 08:17:50;;;;;;;14.9;9.1;;;;;;;3.13;73.19043;941.3528;;;;
2023/12/28 08:20:21;;;;;;;10.7;7.7;;;;;;;3.88;71.94824;941.4205;;;;
2023/12/28 08:22:51;;;;;;;10.3;7;;;;;;;4.67;68.18555;941.3128;;;;
2023/12/28 08:25:28;;;;;;;8.7;6.3;;;;;;;5.31;65.83984;941.2531;;;;
2023/12/28 08:27:56;;;;;;;8.1;5.2;;;;;;;6.12;63.52441;941.3172;;;;
2023/12/28 08:30:21;;;;;;;8.3;5.2;;;;;;;6.62;61.48145;941.3354;;;;
2023/12/28 08:32:50;;;;;;;8.8;5;;;;;;;7.03;59.09277;941.2792;;;;
2023/12/28 08:35:18;;;;;;;7.3;4;;;;;;;7.6;57.53906;941.3409;;;;
2023/12/28 08:37:50;;;;;;;11.7;5.1;;;;;;;8.12;56.04199;941.3013;;;;
2023/12/28 08:40:22;;;;;;;9.6;6;;;;;;;8.49;54.85156;941.2455;;;;
2023/12/28 08:42:50;;;;;;;9.5;5.3;;;;;;;8.8;53.91309;941.1301;;;;
2023/12/28 08:45:17;;;;;;;12.3;6.2;;;;;;;9.23;54.32031;941.1269;;;;
2023/12/28 08:47:49;;;;;;;11.4;8.1;;;;;;;9.44;54.3125;941.1231;;;;
2023/12/28 08:50:21;;;;;;;14;9.4;;;;;;;9.66;53.40625;941.1018;;;;
2023/12/28 08:52:46;;;;;;;15.2;8.8;;;;;;;9.94;52.52832;941.1448;;;;
2023/12/28 08:55:21;;;;;;;12.4;7.1;;;;;;;9.89;51.64453;941.0853;;;;
2023/12/28 08:57:50;;;;;;;13.8;6.4;;;;;;;10.22;51.70703;941.1128;;;;
2023/12/28 09:00:16;;;;;;;11.7;6.9;;;;;;;10.45;49.59961;941.0839;;;;
2023/12/28 09:02:40;;;;;;;10.8;6.5;;;;;;;10.58;48.33496;941.139;;;;
2023/12/28 09:05:12;;;;;;;12.2;6.1;;;;;;;10.87;48.6416;941.1474;;;;
2023/12/28 09:07:43;;;;;;;7.2;4.9;;;;;;;10.79;48.82813;941.1557;;;;
2023/12/28 09:10:07;;;;;;;8.8;5.1;;;;;;;10.9;47.32031;941.065;;;;
2023/12/28 09:12:38;;;;;;;5.6;3.8;;;;;;;10.6;48.30371;941.0732;;;;
2023/12/28 09:15:04;;;;;;;10.6;4.4;;;;;;;10.53;48.85449;941.1167;;;;
2023/12/28 09:17:29;;;;;;;11.3;6.1;;;;;;;10.31;49.36719;941.1348;;;;
2023/12/28 09:19:57;;;;;;;17.6;8.9;;;;;;;10.3;49.58301;941.2724;;;;
2023/12/28 09:22:26;;;;;;;19.3;10.2;;;;;;;10.54;49.60938;941.3279;;;;
2023/12/28 09:24:58;;;;;;;19.7;10.1;;;;;;;10.93;49.65332;941.4604;;;;
2023/12/28 09:27:25;;;;;;;16.6;9.5;;;;;;;11.18;48.26465;941.4918;;;;
2023/12/28 09:29:51;;;;;;;14.2;8;;;;;;;11.19;48.19824;941.4697;;;;
2023/12/28 09:32:17;;;;;;;11.9;6.8;;;;;;;11.04;48.03223;941.467;;;;
2023/12/28 09:34:45;;;;;;;16;7.8;;;;;;;10.96;49.94336;941.4633;;;;
2023/12/28 09:37:10;;;;;;;13.5;7.4;;;;;;;11;49.3418;941.396;;;;
2023/12/28 09:39:39;;;;;;;11.8;6.5;;;;;;;11.13;49.96289;941.3788;;;;
2023/12/28 09:42:04;;;;;;;11.2;6.4;;;;;;;11.15;49.73633;941.3647;;;;
2023/12/28 09:44:31;;;;;;;9.3;5.4;;;;;;;11.28;49.03027;941.3155;;;;
2023/12/28 09:46:59;;;;;;;9.7;5;;;;;;;11.39;48.4375;941.2625;;;;
2023/12/28 09:49:23;;;;;;;8.4;4.5;;;;;;;11.62;48.83008;941.3063;;;;
2023/12/28 09:51:51;;;;;;;10.5;4.4;;;;;;;11.62;46.91797;941.3684;;;;
2023/12/28 09:54:17;;;;;;;9.6;4.6;;;;;;;11.64;45.19141;941.3558;;;;
2023/12/28 09:56:43;;;;;;;7.8;4.7;;;;;;;11.6;45.74805;941.4119;;;;
2023/12/28 09:59:08;;;;;;;9.2;4.8;;;;;;;11.32;46.65625;941.3965;;;;
2023/12/28 10:01:40;;;;;;;9.1;5.4;;;;;;;11.13;48.66016;941.4147;;;;
2023/12/28 10:04:09;;;;;;;10.7;6.1;;;;;;;10.99;49.59375;941.3528;;;;
2023/12/28 10:06:35;;;;;;;11.8;7.2;;;;;;;10.78;49.17969;941.2726;;;;
2023/12/28 10:09:03;;;;;;;11.6;6.5;;;;;;;10.63;49.36914;941.2172;;;;
2023/12/28 10:11:28;;;;;;;12.7;6.8;;;;;;;10.63;48.4209;941.0333;;;;
2023/12/28 10:13:57;;;;;;;10.6;5.5;;;;;;;10.26;49.31543;941.0761;;;;
2023/12/28 10:16:22;;;;;;;7.9;4.8;;;;;;;10.12;48.86621;940.9515;;;;
2023/12/28 10:19:36;;;;;;;11;5.5;;;;;;;9.87;49.98828;940.8694;;;;
2023/12/28 10:22:47;;;;;;;10;5.6;;;;;;;9.66;50.40918;940.79;;;;
2023/12/28 10:25:57;;;;;;;10.4;6.1;;;;;;;9.56;52.52832;940.827;;;;
2023/12/28 10:29:07;;;;;;;10.1;7.1;;;;;;;9.61;53.27441;940.8052;;;;
2023/12/28 10:32:17;;;;;;;11.6;7.9;;;;;;;9.71;52.81934;940.6017;;;;
2023/12/28 10:34:42;;;;;;;8.4;4.9;;;;;;;9.72;50.97461;940.5391;;;;
2023/12/28 10:37:19;;;;;;;7.7;4.9;;;;;;;9.71;51.62305;940.4991;;;;
2023/12/28 10:39:46;;;;;;;6.5;3;;;;;;;9.89;49.70703;940.3615;;;;
2023/12/28 10:42:15;;;;;;;4.7;2.7;;;;;;;10.02;48.36426;940.4217;;;;
2023/12/28 10:44:40;;;;;;;5.9;3.4;;;;;;;9.93;48.0918;940.4368;;;;
2023/12/28 10:47:06;;;;;;;4.8;3.3;;;;;;;10.09;48.98828;940.3591;;;;
2023/12/28 10:49:33;;;;;;;7.8;4.2;;;;;;;9.98;49.47754;940.2523;;;;
2023/12/28 10:52:07;;;;;;;5.6;3.7;;;;;;;9.98;49.80859;940.1631;;;;
2023/12/28 10:54:37;;;;;;;5.8;3.4;;;;;;;9.99;50.1748;940.184;;;;
2023/12/28 10:57:29;;;;;;;5.2;3.4;;;;;;;10.03;50.91992;940.145;;;;
2023/12/28 10:59:53;;;;;;;4.9;3.2;;;;;;;10.13;51.19336;940.1226;;;;
2023/12/28 11:02:21;;;;;;;6.4;3;;;;;;;10.26;50.67285;940.1624;;;;
2023/12/28 11:04:45;;;;;;;6.7;3.3;;;;;;;10.32;51.30762;940.2156;;;;
2023/12/28 11:07:11;;;;;;;8.4;4.1;;;;;;;10.4;50.66602;940.1705;;;;
2023/12/28 11:09:37;;;;;;;7.7;3.9;;;;;;;10.45;49.22266;940.2169;;;;
2023/12/28 11:12:01;;;;;;;6.6;3.4;;;;;;;10.58;47.63965;940.1301;;;;
2023/12/28 11:14:35;;;;;;;4.7;2.6;;;;;;;10.72;45.5293;940.14;;;;
2023/12/28 11:17:07;;;;;;;4.4;2.8;;;;;;;10.73;47.83887;940.098;;;;
2023/12/28 11:19:36;;;;;;;5.7;2.8;;;;;;;10.8;48.17773;940.0486;;;;
2023/12/28 11:22:08;;;;;;;8.9;3.2;;;;;;;10.77;49.25879;940.073;;;;
2023/12/28 11:24:41;;;;;;;7.2;3.1;;;;;;;10.73;48.95703;940.0198;;;;
2023/12/28 11:27:08;;;;;;;6.3;3.6;;;;;;;10.76;49.37207;939.9565;;;;
2023/12/28 11:29:35;;;;;;;7.3;4;;;;;;;10.72;49.3457;939.945;;;;
2023/12/28 11:32:04;;;;;;;6.3;3.7;;;;;;;10.63;49.54102;939.9606;;;;
2023/12/28 11:34:29;;;;;;;4.9;2.9;;;;;;;10.54;49.76855;939.9553;;;;
2023/12/28 11:36:57;;;;;;;5.9;3.2;;;;;;;10.48;50.08203;939.9975;;;;
2023/12/28 11:39:22;;;;;;;5.9;2.9;;;;;;;10.51;49.23047;939.9621;;;;
2023/12/28 11:41:50;;;;;;;5.6;2.7;;;;;;;10.41;49.60645;939.9179;;;;
2023/12/28 11:44:15;;;;;;;7.2;2.3;;;;;;;10.4;49.27539;939.9915;;;;
2023/12/28 11:46:41;;;;;;;6.1;2.6;;;;;;;10.39;48.75879;940.0199;;;;
2023/12/28 11:49:12;;;;;;;7.7;2.8;;;;;;;10.45;48.6748;939.9789;;;;
2023/12/28 11:51:39;;;;;;;6.4;4;;;;;;;10.41;49.29785;940.0886;;;;
2023/12/28 11:54:04;;;;;;;5.9;3.5;;;;;;;10.38;52.78711;940.0883;;;;
2023/12/28 11:56:32;;;;;;;6.2;3.1;;;;;;;10.35;55.77441;940.1055;;;;
2023/12/28 11:58:59;;;;;;;4.9;2.8;;;;;;;10.34;54.87012;940.0392;;;;
2023/12/28 12:01:24;;;;;;;5.2;2.7;;;;;;;10.38;54.60254;939.9959;;;;
2023/12/28 12:03:50;;;;;;;6;3;;;;;;;10.4;52.37988;939.9827;;;;
2023/12/28 12:06:17;;;;;;;9.3;3.3;;;;;;;10.41;52.01465;939.9689;;;;
2023/12/28 12:08:46;;;;;;;9.2;3.4;;;;;;;10.43;52.13184;939.8808;;;;
2023/12/28 12:11:16;;;;;;;8.1;4.1;;;;;;;10.47;51.42969;939.9378;;;;
2023/12/28 12:13:46;;;;;;;8.2;3.9;;;;;;;10.49;51.56738;939.9594;;;;
2023/12/28 12:16:11;;;;;;;10.4;4.8;;;;;;;10.55;53.19629;939.9475;;;;
2023/12/28 12:18:36;;;;;;;7.3;4.2;;;;;;;10.66;49.25781;939.9936;;;;
2023/12/28 12:21:07;;;;;;;9.6;4.4;;;;;;;10.73;49.16309;940.0064;;;;
2023/12/28 12:23:33;;;;;;;7.8;4.1;;;;;;;10.75;49.02832;940.0449;;;;
2023/12/28 12:26:00;;;;;;;10.2;4.4;;;;;;;10.75;48.86914;939.9652;;;;
2023/12/28 12:28:25;;;;;;;8.5;4.4;;;;;;;10.7;50.26758;940.0076;;;;
2023/12/28 12:30:55;;;;;;;11.9;4.4;;;;;;;10.73;50.4082;940.0023;;;;
2023/12/28 12:33:20;;;;;;;11.7;5.2;;;;;;;10.74;50.12402;939.8878;;;;
2023/12/28 12:35:45;;;;;;;12.1;6.6;;;;;;;10.73;49.95215;939.8964;;;;
2023/12/28 12:38:11;;;;;;;13.7;7.2;;;;;;;10.7;49.70898;939.92;;;;
2023/12/28 12:40:40;;;;;;;14.1;7.7;;;;;;;10.68;50.32227;939.9469;;;;
2023/12/28 12:43:05;;;;;;;18.4;7.3;;;;;;;10.66;50.68555;939.9331;;;;
2023/12/28 12:45:36;;;;;;;11.3;6.8;;;;;;;10.7;51.83203;939.9431;;;;
2023/12/28 12:48:05;;;;;;;10.4;6;;;;;;;10.8;52.18652;939.9108;;;;
2023/12/28 12:50:33;;;;;;;14.9;7;;;;;;;10.79;52.49414;939.8669;;;;
2023/12/28 12:52:58;;;;;;;16.2;8;;;;;;;10.75;53.87207;939.8823;;;;
2023/12/28 12:55:25;;;;;;;17.4;7.4;;;;;;;10.78;52.79004;939.9001;;;;
2023/12/28 12:57:48;;;;;;;22.7;8.1;;;;;;;10.69;53.24707;939.9216;;;;
2023/12/28 13:00:15;;;;;;;14.3;8;;;;;;;10.65;53.12891;939.9576;;;;
2023/12/28 13:02:44;;;;;;;15.3;8;;;;;;;10.53;53.45605;939.9686;;;;
2023/12/28 13:05:11;;;;;;;15;8;;;;;;;10.5;54.29883;940.0034;;;;
2023/12/28 13:07:41;;;;;;;15.1;7.4;;;;;;;10.46;55.18164;939.9662;;;;
2023/12/28 13:10:17;;;;;;;15.8;8.4;;;;;;;10.45;56.18555;939.9828;;;;
2023/12/28 13:12:46;;;;;;;15.7;7.3;;;;;;;10.47;54.68164;939.9409;;;;
2023/12/28 13:15:11;;;;;;;12.9;6.2;;;;;;;10.43;53.66016;939.981;;;;
2023/12/28 13:17:45;;;;;;;9.6;5.4;;;;;;;10.41;53.41797;939.9816;;;;
2023/12/28 13:20:12;;;;;;;9.9;5.8;;;;;;;10.36;52.8877;939.9855;;;;
2023/12/28 13:22:37;;;;;;;11.6;7.3;;;;;;;10.34;53.42188;939.9637;;;;
2023/12/28 13:25:10;;;;;;;11.6;6.7;;;;;;;10.31;54.2959;940.0022;;;;
2023/12/28 13:27:42;;;;;;;11.3;7.3;;;;;;;10.28;53.20898;939.9286;;;;
2023/12/28 13:30:12;;;;;;;10.8;7.2;;;;;;;10.22;53.23633;939.9908;;;;
2023/12/28 13:32:43;;;;;;;13.1;7.8;;;;;;;10.2;55.36621;939.9246;;;;
2023/12/28 13:35:20;;;;;;;12;6.4;;;;;;;10.21;55.18555;939.8343;;;;
2023/12/28 13:37:52;;;;;;;17;8.2;;;;;;;10.16;54.72168;939.7355;;;;
2023/12/28 13:40:18;;;;;;;12.5;6;;;;;;;10.23;52.19824;939.6383;;;;
2023/12/28 13:42:52;;;;;;;10.9;6.4;;;;;;;10.18;53.11523;939.5885;;;;
2023/12/28 13:45:24;;;;;;;11.7;6.4;;;;;;;10.1;53.74512;939.6503;;;;
2023/12/28 13:47:56;;;;;;;14.2;6.9;;;;;;;10;54.69141;939.6813;;;;
2023/12/28 13:50:28;;;;;;;15;7;;;;;;;9.93;55.14941;939.5675;;;;
2023/12/28 13:52:56;;;;;;;16.1;8;;;;;;;9.92;55.57031;939.5864;;;;
2023/12/28 13:55:21;;;;;;;20.3;10.1;;;;;;;9.88;55.94141;939.4833;;;;
2023/12/28 13:57:52;;;;;;;20.9;10.4;;;;;;;9.82;56.53711;939.5747;;;;
2023/12/28 14:00:23;;;;;;;16.5;9.8;;;;;;;9.83;56.68848;939.5287;;;;
2023/12/28 14:02:52;;;;;;;21.5;9.2;;;;;;;9.78;56.63574;939.507;;;;
2023/12/28 14:05:17;;;;;;;17.3;8.5;;;;;;;9.73;57.25488;939.5095;;;;
2023/12/28 14:07:48;;;;;;;23.9;10.8;;;;;;;9.67;57.03027;939.5037;;;;
2023/12/28 14:10:18;;;;;;;28.4;12.6;;;;;;;9.65;57.30078;939.6347;;;;
2023/12/28 14:12:43;;;;;;;18.4;8.6;;;;;;;9.66;57.90723;939.6913;;;;
2023/12/28 14:15:16;;;;;;;11.5;6.6;;;;;;;9.55;58.63086;939.6853;;;;
2023/12/28 14:17:47;;;;;;;13.3;7.2;;;;;;;9.59;59.07129;939.6319;;;;
2023/12/28 14:20:22;;;;;;;14.4;8.3;;;;;;;9.45;60.09961;939.6099;;;;
2023/12/28 14:22:50;;;;;;;14.7;7.9;;;;;;;9.37;60.84082;939.6013;;;;
2023/12/28 14:25:16;;;;;;;13.7;8.1;;;;;;;9.33;61.50586;939.6372;;;;
2023/12/28 14:27:47;;;;;;;11.4;6.4;;;;;;;9.42;59.90039;939.642;;;;
2023/12/28 14:30:15;;;;;;;12.3;7.5;;;;;;;9.42;59.45801;939.7255;;;;
2023/12/28 14:32:42;;;;;;;21.5;12.8;;;;;;;9.49;59.70605;939.7361;;;;
2023/12/28 14:35:07;;;;;;;25.2;12.9;;;;;;;9.34;61.81543;939.7454;;;;
2023/12/28 14:37:32;;;;;;;22.5;11.5;;;;;;;9.26;60.97266;939.7544;;;;
2023/12/28 14:39:57;;;;;;;21;10;;;;;;;9.34;59.66309;939.7397;;;;